Time;durP1;ratioP1;P1;durP2;ratioP2;P2;SDS_P1;SDS_P2;PMS_P1;PMS_P2;Temp;Humidity;BMP_temperature;BMP_pressure;BME280_temperature;BME280_humidity;BME280_pressure;Samples;Min_cycle;Max_cycle;Signal;HPM_P1;HPM_P2
2023/07/30 00:01:39;;;;;;;7.03;6.57;;;17.10;99.90;;;;;;5186366;28;20021;-70
2023/07/30 00:04:09;;;;;;;4.70;4.32;;;17.10;99.90;;;;;;5185434;28;20104;-71
2023/07/30 00:06:40;;;;;;;4.65;4.35;;;17.10;99.90;;;;;;5186165;28;20068;-70
2023/07/30 00:09:11;;;;;;;4.63;4.22;;;17.00;99.90;;;;;;5186281;28;20600;-70
2023/07/30 00:11:42;;;;;;;4.72;4.43;;;17.00;99.90;;;;;;5186040;28;20022;-70
2023/07/30 00:14:13;;;;;;;4.60;4.30;;;17.00;99.90;;;;;;5185828;28;20034;-71
2023/07/30 00:16:44;;;;;;;4.60;4.32;;;16.80;99.90;;;;;;5185101;28;20079;-70
2023/07/30 00:19:14;;;;;;;4.60;4.07;;;16.90;99.90;;;;;;5184857;28;20033;-70
2023/07/30 00:21:46;;;;;;;4.00;3.70;;;16.50;99.90;;;;;;5184687;28;20393;-71
2023/07/30 00:24:17;;;;;;;3.65;3.40;;;16.80;99.90;;;;;;5184987;28;20056;-70
2023/07/30 00:26:48;;;;;;;4.05;3.22;;;16.70;99.90;;;;;;5184211;28;20093;-70
2023/07/30 00:29:19;;;;;;;4.05;3.75;;;16.90;99.90;;;;;;5184946;28;20072;-71
2023/07/30 00:31:50;;;;;;;4.53;4.07;;;16.80;99.90;;;;;;5185624;28;20436;-70
2023/07/30 00:34:21;;;;;;;4.13;3.83;;;16.90;99.90;;;;;;5185968;28;20025;-70
2023/07/30 00:36:51;;;;;;;4.38;4.03;;;16.80;99.90;;;;;;5185870;28;20032;-70
2023/07/30 00:39:22;;;;;;;4.57;4.28;;;16.70;99.90;;;;;;5185746;28;20072;-71
2023/07/30 00:41:53;;;;;;;3.53;3.33;;;16.90;99.90;;;;;;5185822;28;20022;-70
2023/07/30 00:44:24;;;;;;;3.85;3.55;;;16.60;99.90;;;;;;5185779;28;20026;-70
2023/07/30 00:46:55;;;;;;;3.53;3.33;;;16.60;99.90;;;;;;5185645;28;20022;-70
2023/07/30 00:49:26;;;;;;;3.53;3.22;;;16.40;99.90;;;;;;5185625;28;20029;-70
2023/07/30 00:51:57;;;;;;;3.78;2.97;;;16.60;99.90;;;;;;5185631;28;20037;-71
2023/07/30 00:54:27;;;;;;;3.97;3.65;;;16.50;99.90;;;;;;5185468;28;20049;-70
2023/07/30 00:56:58;;;;;;;4.18;3.63;;;16.70;99.90;;;;;;5185566;28;20042;-71
2023/07/30 00:59:29;;;;;;;3.67;3.38;;;16.70;99.90;;;;;;5185106;28;20735;-71
2023/07/30 01:02:02;;;;;;;4.00;3.70;;;16.70;99.90;;;;;;5185465;28;20038;-70
2023/07/30 01:04:34;;;;;;;3.80;3.45;;;16.70;99.90;;;;;;5185339;28;20433;-70
2023/07/30 01:07:05;;;;;;;4.55;3.70;;;16.60;99.90;;;;;;5185439;28;20037;-71
2023/07/30 01:09:36;;;;;;;3.53;3.15;;;16.50;99.90;;;;;;5184257;28;20041;-71
2023/07/30 01:12:08;;;;;;;3.50;3.30;;;16.20;99.90;;;;;;5184843;28;20068;-71
2023/07/30 01:14:40;;;;;;;3.92;3.63;;;16.20;99.90;;;;;;5183577;28;20018;-71
2023/07/30 01:17:12;;;;;;;3.75;3.50;;;16.10;99.90;;;;;;5183978;28;20064;-71
2023/07/30 01:19:43;;;;;;;4.57;4.28;;;16.30;99.90;;;;;;5183816;28;20057;-71
2023/07/30 01:22:13;;;;;;;4.22;3.92;;;16.40;99.90;;;;;;5183952;28;20065;-71
2023/07/30 01:27:27;;;;;;;6.80;6.30;;;16.60;99.90;;;;;;5181865;28;20391;-70
2023/07/30 01:30:13;;;;;;;5.22;4.85;;;16.50;99.90;;;;;;5184940;28;20046;-70
2023/07/30 01:32:48;;;;;;;4.88;4.47;;;16.50;99.90;;;;;;5185394;28;20034;-70
2023/07/30 01:35:25;;;;;;;6.05;5.63;;;16.40;99.90;;;;;;5185055;28;20029;-70
2023/07/30 01:37:57;;;;;;;5.32;4.93;;;16.50;99.90;;;;;;5185277;28;20026;-70
2023/07/30 01:40:28;;;;;;;4.93;4.53;;;16.60;99.90;;;;;;5184962;28;20152;-71
2023/07/30 01:42:59;;;;;;;5.25;4.90;;;16.40;99.90;;;;;;5184967;28;20477;-71
2023/07/30 01:45:30;;;;;;;5.22;4.75;;;16.40;99.90;;;;;;5178151;28;20470;-71
2023/07/30 01:48:01;;;;;;;4.72;4.43;;;16.50;99.90;;;;;;5184802;28;20083;-70
2023/07/30 01:50:32;;;;;;;4.35;4.05;;;16.40;99.90;;;;;;5184734;28;20030;-70
2023/07/30 01:53:02;;;;;;;4.85;4.55;;;16.00;99.90;;;;;;5184827;28;20080;-70
2023/07/30 01:55:33;;;;;;;4.60;4.20;;;16.20;99.90;;;;;;5184616;28;20088;-70
2023/07/30 01:58:04;;;;;;;4.63;4.30;;;16.30;99.90;;;;;;5183379;28;20056;-70
2023/07/30 02:00:35;;;;;;;6.00;4.35;;;16.00;99.90;;;;;;5184626;28;20044;-70
2023/07/30 02:03:06;;;;;;;4.72;4.43;;;16.30;99.90;;;;;;5184807;28;20030;-70
2023/07/30 02:05:37;;;;;;;4.00;3.80;;;16.30;99.90;;;;;;5183809;28;20068;-70
2023/07/30 02:08:08;;;;;;;4.50;4.20;;;16.10;99.90;;;;;;5184282;28;20121;-70
2023/07/30 02:10:39;;;;;;;4.95;4.55;;;16.20;99.90;;;;;;5183480;28;20284;-71
2023/07/30 02:13:10;;;;;;;4.93;4.22;;;16.30;99.90;;;;;;5183384;28;20041;-70
2023/07/30 02:15:42;;;;;;;4.43;4.13;;;16.00;99.90;;;;;;5183398;28;20023;-70
2023/07/30 02:18:12;;;;;;;4.60;4.30;;;15.90;99.90;;;;;;5183540;28;20029;-70
2023/07/30 02:20:43;;;;;;;4.80;4.45;;;15.90;99.90;;;;;;5183171;28;20470;-70
2023/07/30 02:23:16;;;;;;;4.22;3.92;;;15.80;99.90;;;;;;5183448;28;20037;-71
2023/07/30 02:25:47;;;;;;;4.82;4.47;;;15.80;99.90;;;;;;5183914;28;20409;-71
2023/07/30 02:28:17;;;;;;;4.65;4.35;;;16.00;99.90;;;;;;5187370;28;20030;-70
2023/07/30 02:30:48;;;;;;;4.55;4.15;;;16.20;99.90;;;;;;5188412;28;20022;-70
2023/07/30 02:33:19;;;;;;;4.00;3.72;;;16.20;99.90;;;;;;5188139;28;20022;-70
2023/07/30 02:35:50;;;;;;;3.13;2.92;;;16.10;99.90;;;;;;5188105;28;20049;-71
2023/07/30 02:38:21;;;;;;;4.20;3.90;;;15.90;99.90;;;;;;5177456;28;20015;-70
2023/07/30 02:40:52;;;;;;;3.75;3.47;;;16.10;99.90;;;;;;5171918;28;20061;-70
2023/07/30 02:43:22;;;;;;;4.10;3.80;;;16.00;99.90;;;;;;5188204;28;20029;-70
2023/07/30 02:45:53;;;;;;;4.38;3.97;;;15.80;99.90;;;;;;5188150;28;20048;-70
2023/07/30 02:48:24;;;;;;;4.15;3.85;;;15.90;99.90;;;;;;5187749;28;20028;-70
2023/07/30 02:50:55;;;;;;;4.25;3.95;;;16.00;99.90;;;;;;5188031;28;20042;-70
2023/07/30 02:53:26;;;;;;;4.28;3.97;;;16.00;99.90;;;;;;5187678;28;20029;-70
2023/07/30 02:55:57;;;;;;;4.05;3.75;;;16.00;99.90;;;;;;5187733;28;20030;-71
2023/07/30 02:58:27;;;;;;;4.03;3.72;;;15.90;99.90;;;;;;5187900;28;20454;-71
2023/07/30 03:01:06;;;;;;;4.25;3.85;;;16.00;99.90;;;;;;5187303;28;20037;-70
2023/07/30 03:03:37;;;;;;;3.30;3.10;;;16.00;99.90;;;;;;5187559;28;20026;-70
2023/07/30 03:06:08;;;;;;;4.70;4.30;;;15.80;99.90;;;;;;5186350;28;20429;-70
2023/07/30 03:08:39;;;;;;;5.20;4.72;;;15.70;99.90;;;;;;5186101;28;20026;-70
2023/07/30 03:11:10;;;;;;;4.93;4.53;;;15.80;99.90;;;;;;5179740;28;20022;-70
2023/07/30 03:13:41;;;;;;;4.70;4.20;;;15.90;99.90;;;;;;5166007;28;20023;-70
2023/07/30 03:16:11;;;;;;;4.90;4.45;;;16.00;99.90;;;;;;5184773;28;20485;-70
2023/07/30 03:18:42;;;;;;;4.40;4.10;;;16.00;99.90;;;;;;5186069;28;20462;-70
2023/07/30 03:21:13;;;;;;;4.00;3.70;;;16.00;99.90;;;;;;5186899;28;20040;-70
2023/07/30 03:23:44;;;;;;;6.18;4.60;;;15.80;99.90;;;;;;5186115;28;20029;-70
2023/07/30 03:26:15;;;;;;;4.78;4.47;;;15.80;99.90;;;;;;5186639;28;20056;-71
2023/07/30 03:28:46;;;;;;;4.57;4.28;;;16.00;99.90;;;;;;5186098;28;20377;-70
2023/07/30 03:31:16;;;;;;;4.50;4.20;;;15.70;99.90;;;;;;5186920;28;20025;-70
2023/07/30 03:33:47;;;;;;;5.50;4.07;;;15.80;99.90;;;;;;5187084;28;20033;-71
2023/07/30 03:36:18;;;;;;;4.82;3.15;;;15.90;99.90;;;;;;5186827;28;20034;-70
2023/07/30 03:38:49;;;;;;;5.10;4.72;;;16.00;99.90;;;;;;5187039;28;20462;-70
2023/07/30 03:41:20;;;;;;;4.20;3.90;;;16.10;99.90;;;;;;5186819;28;20124;-71
2023/07/30 03:43:51;;;;;;;3.95;3.60;;;16.10;99.90;;;;;;5185593;28;20056;-71
2023/07/30 03:46:21;;;;;;;4.25;3.95;;;16.30;99.90;;;;;;5186652;28;20377;-70
2023/07/30 03:48:52;;;;;;;4.00;3.70;;;16.30;99.90;;;;;;5186763;28;20110;-71
2023/07/30 03:51:23;;;;;;;4.45;4.10;;;16.40;99.90;;;;;;5186296;28;20022;-71
2023/07/30 03:53:54;;;;;;;4.72;4.20;;;16.30;99.90;;;;;;5186483;28;20029;-70
2023/07/30 03:56:25;;;;;;;5.18;4.70;;;16.30;99.90;;;;;;5184860;28;20029;-70
2023/07/30 03:58:56;;;;;;;5.05;4.55;;;16.60;99.90;;;;;;5185779;28;20054;-70
2023/07/30 04:01:27;;;;;;;4.97;4.57;;;16.60;99.90;;;;;;5185244;28;20033;-71
2023/07/30 04:03:58;;;;;;;4.40;4.00;;;16.70;99.90;;;;;;5185054;28;20026;-70
2023/07/30 04:06:29;;;;;;;3.72;3.42;;;16.90;99.90;;;;;;5185053;28;20052;-71
2023/07/30 04:09:00;;;;;;;3.97;3.67;;;16.90;99.90;;;;;;5184967;28;20526;-70
2023/07/30 04:11:30;;;;;;;4.18;3.88;;;16.90;99.90;;;;;;5185078;28;20029;-70
2023/07/30 04:14:01;;;;;;;4.57;3.78;;;17.00;99.90;;;;;;5185196;28;20149;-70
2023/07/30 04:16:32;;;;;;;4.22;3.92;;;16.90;99.90;;;;;;5185551;28;20034;-71
2023/07/30 04:19:03;;;;;;;4.97;4.57;;;16.90;99.90;;;;;;5186067;28;20018;-70
2023/07/30 04:21:34;;;;;;;5.13;4.15;;;17.10;99.90;;;;;;5186062;28;20057;-70
2023/07/30 04:24:05;;;;;;;4.38;3.97;;;17.20;99.90;;;;;;5186011;28;20022;-71
2023/07/30 04:26:35;;;;;;;3.97;3.67;;;17.40;99.90;;;;;;5185677;28;20058;-70
2023/07/30 04:29:06;;;;;;;4.38;4.03;;;17.20;99.90;;;;;;5184564;28;20029;-70
2023/07/30 04:31:37;;;;;;;4.55;4.07;;;17.40;99.90;;;;;;5185775;28;20041;-70
2023/07/30 04:34:08;;;;;;;4.78;4.38;;;17.60;99.90;;;;;;5185834;28;20470;-70
2023/07/30 04:36:39;;;;;;;5.25;4.80;;;17.40;99.90;;;;;;5185727;28;20022;-71
2023/07/30 04:39:12;;;;;;;4.10;3.80;;;17.70;99.90;;;;;;5185940;28;20076;-70
2023/07/30 04:41:43;;;;;;;5.13;4.65;;;18.00;99.90;;;;;;5185763;28;20029;-70
2023/07/30 04:44:14;;;;;;;5.15;4.75;;;18.20;99.90;;;;;;5185606;28;20040;-70
2023/07/30 04:46:44;;;;;;;5.60;5.05;;;18.00;99.90;;;;;;5185755;28;20468;-70
2023/07/30 04:49:15;;;;;;;5.47;4.97;;;17.90;99.90;;;;;;5185131;28;20036;-70
2023/07/30 04:51:46;;;;;;;5.78;5.28;;;18.00;99.90;;;;;;5185733;28;20029;-70
2023/07/30 04:54:17;;;;;;;6.07;5.57;;;18.30;99.90;;;;;;5184858;28;20080;-70
2023/07/30 04:56:48;;;;;;;6.80;5.68;;;18.40;99.90;;;;;;5184970;28;20394;-71
2023/07/30 04:59:19;;;;;;;5.28;4.80;;;18.60;99.90;;;;;;5184037;28;20034;-70
2023/07/30 05:01:50;;;;;;;5.75;5.25;;;18.90;99.90;;;;;;5183973;28;20136;-71
2023/07/30 05:04:21;;;;;;;6.45;5.70;;;19.20;99.90;;;;;;5183982;28;20018;-70
2023/07/30 05:06:51;;;;;;;6.15;5.75;;;19.20;99.90;;;;;;5184057;28;20037;-71
2023/07/30 05:09:22;;;;;;;7.20;6.70;;;19.30;99.90;;;;;;5184271;28;20014;-71
2023/07/30 05:11:53;;;;;;;8.00;7.43;;;19.40;99.90;;;;;;5184566;28;20504;-71
2023/07/30 05:14:24;;;;;;;8.80;8.18;;;19.60;99.90;;;;;;5185048;28;20034;-71
2023/07/30 05:16:55;;;;;;;8.90;8.02;;;19.80;99.90;;;;;;5185271;28;20033;-71
2023/07/30 05:19:26;;;;;;;8.40;7.80;;;19.90;99.90;;;;;;5185194;28;20069;-71
2023/07/30 05:21:56;;;;;;;8.45;7.85;;;19.90;99.90;;;;;;5185238;28;20033;-71
2023/07/30 05:24:28;;;;;;;7.90;7.40;;;20.10;99.90;;;;;;5183817;28;20080;-71
2023/07/30 05:26:59;;;;;;;7.55;6.95;;;20.30;99.90;;;;;;5185318;28;20057;-71
2023/07/30 05:29:30;;;;;;;8.27;7.60;;;20.60;99.90;;;;;;5185331;28;20037;-71
2023/07/30 05:32:01;;;;;;;8.30;7.70;;;20.70;99.90;;;;;;5185065;28;20017;-71
2023/07/30 05:34:32;;;;;;;9.35;8.65;;;21.00;99.90;;;;;;5184961;28;20034;-71
2023/07/30 05:37:03;;;;;;;9.45;8.50;;;21.30;99.90;;;;;;5184126;28;20026;-71
2023/07/30 05:39:33;;;;;;;9.57;8.88;;;21.60;99.90;;;;;;5184003;28;20037;-71
2023/07/30 05:42:04;;;;;;;7.80;7.30;;;21.90;99.90;;;;;;5185121;28;20033;-71
2023/07/30 05:44:35;;;;;;;8.35;7.65;;;22.30;99.90;;;;;;5184597;28;20026;-71
2023/07/30 05:47:06;;;;;;;9.50;8.85;;;22.40;99.90;;;;;;5199565;28;20030;-71
2023/07/30 05:49:37;;;;;;;8.25;7.53;;;22.60;99.90;;;;;;5184292;28;20087;-71
2023/07/30 05:52:08;;;;;;;8.23;7.53;;;22.80;99.90;;;;;;5184679;28;20049;-71
2023/07/30 05:54:38;;;;;;;7.05;6.30;;;22.90;99.90;;;;;;5183318;28;20034;-71
2023/07/30 05:57:09;;;;;;;7.90;7.20;;;23.00;99.90;;;;;;5183615;28;20034;-71
2023/07/30 05:59:40;;;;;;;6.85;6.25;;;23.10;99.90;;;;;;5183254;28;20084;-71
2023/07/30 06:02:11;;;;;;;6.82;6.22;;;23.10;99.90;;;;;;5184748;28;20369;-71
2023/07/30 06:04:42;;;;;;;7.35;6.78;;;23.10;99.90;;;;;;5187645;28;20444;-71
2023/07/30 06:07:13;;;;;;;5.68;5.28;;;23.10;99.90;;;;;;5186377;28;20018;-71
2023/07/30 06:09:45;;;;;;;5.75;5.15;;;23.40;99.90;;;;;;5168427;28;20023;-71
2023/07/30 06:12:16;;;;;;;5.43;4.95;;;23.60;99.90;;;;;;5184614;28;20040;-71
2023/07/30 06:14:46;;;;;;;3.97;3.67;;;23.90;99.90;;;;;;5187598;28;20026;-71
2023/07/30 06:17:17;;;;;;;5.30;3.83;;;23.90;99.90;;;;;;5187831;28;20454;-71
2023/07/30 06:19:48;;;;;;;4.32;4.03;;;23.70;99.90;;;;;;5187488;28;20057;-71
2023/07/30 06:22:19;;;;;;;5.07;4.78;;;23.70;99.90;;;;;;5188115;28;20061;-72
2023/07/30 06:24:50;;;;;;;5.75;5.35;;;23.70;99.90;;;;;;5188162;28;20492;-72
2023/07/30 06:27:21;;;;;;;5.25;4.95;;;23.90;99.90;;;;;;5188125;28;20401;-72
2023/07/30 06:29:52;;;;;;;4.30;4.00;;;23.80;99.90;;;;;;5188018;28;20026;-72
2023/07/30 06:32:22;;;;;;;4.22;4.00;;;24.20;99.90;;;;;;5187946;28;20018;-72
2023/07/30 06:34:53;;;;;;;3.97;3.70;;;24.40;99.90;;;;;;5188016;28;20026;-71
2023/07/30 06:37:24;;;;;;;3.70;3.47;;;24.70;99.90;;;;;;5188364;28;20026;-71
2023/07/30 06:39:55;;;;;;;4.40;4.00;;;24.70;99.90;;;;;;5188336;28;20541;-71
2023/07/30 06:42:26;;;;;;;4.65;4.32;;;24.50;99.90;;;;;;5187894;28;20025;-72
2023/07/30 06:44:57;;;;;;;4.50;4.10;;;24.40;99.90;;;;;;5187506;28;20041;-71
2023/07/30 06:47:28;;;;;;;4.82;4.43;;;24.50;99.90;;;;;;5187245;28;20486;-71
2023/07/30 06:49:58;;;;;;;4.72;3.75;;;24.80;99.90;;;;;;5186743;28;20097;-72
2023/07/30 06:52:29;;;;;;;4.07;3.53;;;25.00;99.90;;;;;;5186333;28;20054;-72
2023/07/30 06:55:00;;;;;;;2.88;2.67;;;25.10;99.90;;;;;;5185985;28;20033;-72
2023/07/30 06:57:31;;;;;;;4.72;2.95;;;25.10;99.90;;;;;;5186415;28;20418;-72
2023/07/30 07:00:03;;;;;;;3.33;2.92;;;25.30;99.90;;;;;;5186134;28;20113;-72
2023/07/30 07:02:34;;;;;;;4.35;2.75;;;25.30;99.90;;;;;;5186150;28;20361;-71
2023/07/30 07:05:05;;;;;;;3.88;3.30;;;25.30;99.90;;;;;;5186863;28;20025;-72
2023/07/30 07:07:36;;;;;;;3.38;3.08;;;25.30;99.90;;;;;;5187250;28;20024;-71
2023/07/30 07:10:07;;;;;;;3.90;3.60;;;25.50;99.90;;;;;;5202739;28;20026;-71
2023/07/30 07:12:39;;;;;;;3.63;2.75;;;25.30;99.90;;;;;;5174917;28;20358;-72
2023/07/30 07:15:10;;;;;;;2.90;2.60;;;25.50;99.90;;;;;;5173574;28;20381;-72
2023/07/30 07:17:41;;;;;;;2.75;2.55;;;25.50;99.90;;;;;;5187446;28;20109;-72
2023/07/30 07:20:11;;;;;;;2.88;2.65;;;25.80;99.90;;;;;;5187287;28;20113;-72
2023/07/30 07:22:43;;;;;;;3.38;3.17;;;25.70;99.90;;;;;;5185955;28;20037;-72
2023/07/30 07:25:14;;;;;;;2.95;2.67;;;25.80;99.90;;;;;;5185370;28;20046;-71
2023/07/30 07:27:44;;;;;;;2.80;2.60;;;25.80;99.90;;;;;;5186917;28;20134;-72
2023/07/30 07:30:15;;;;;;;3.67;2.78;;;25.80;99.90;;;;;;5186772;28;20029;-72
2023/07/30 07:32:50;;;;;;;3.30;3.00;;;26.10;99.90;;;;;;5187249;28;20026;-71
2023/07/30 07:35:21;;;;;;;3.38;3.13;;;26.20;99.90;;;;;;5166834;28;20061;-72
2023/07/30 07:37:52;;;;;;;4.43;4.13;;;26.20;99.90;;;;;;5184404;28;20051;-71
2023/07/30 07:40:23;;;;;;;5.30;5.00;;;26.20;99.90;;;;;;5185339;28;20551;-72
2023/07/30 07:42:55;;;;;;;6.97;4.38;;;26.10;99.90;;;;;;5185192;28;20046;-71
2023/07/30 07:45:26;;;;;;;5.10;4.80;;;26.30;99.90;;;;;;5186228;28;20026;-72
2023/07/30 07:47:56;;;;;;;3.92;3.55;;;26.20;99.90;;;;;;5185276;28;20022;-72
2023/07/30 07:50:27;;;;;;;3.97;3.78;;;26.20;99.90;;;;;;5185063;28;20045;-72
2023/07/30 07:52:58;;;;;;;4.13;3.72;;;26.30;99.90;;;;;;5184900;28;20634;-72
2023/07/30 07:55:29;;;;;;;5.05;3.40;;;26.50;99.90;;;;;;5185200;28;20394;-72
2023/07/30 07:58:00;;;;;;;21.75;5.68;;;26.50;99.90;;;;;;5185791;28;20103;-72
2023/07/30 08:00:30;;;;;;;3.30;3.10;;;26.50;99.90;;;;;;5183779;28;20046;-72
2023/07/30 08:03:01;;;;;;;3.22;2.33;;;26.60;99.90;;;;;;5185729;28;20490;-71
2023/07/30 08:05:32;;;;;;;2.85;2.65;;;26.60;99.90;;;;;;5185273;28;20034;-72
2023/07/30 08:08:03;;;;;;;3.80;3.50;;;26.70;99.90;;;;;;5184150;28;20021;-72
2023/07/30 08:10:39;;;;;;;4.88;4.57;;;26.70;99.90;;;;;;5185261;28;20492;-72
2023/07/30 08:13:11;;;;;;;4.00;3.55;;;26.70;99.90;;;;;;5183900;28;20022;-72
2023/07/30 08:15:42;;;;;;;3.85;3.55;;;26.70;99.90;;;;;;5185241;28;20100;-72
2023/07/30 08:18:18;;;;;;;3.47;3.28;;;26.70;99.90;;;;;;5184115;28;20022;-71
2023/07/30 08:20:53;;;;;;;3.42;3.22;;;26.90;99.90;;;;;;5182805;28;20137;-72
2023/07/30 08:23:29;;;;;;;3.20;2.85;;;26.90;99.90;;;;;;5185693;28;20458;-72
2023/07/30 08:26:01;;;;;;;4.25;3.85;;;27.00;99.90;;;;;;5182482;28;20502;-72
2023/07/30 08:28:32;;;;;;;4.00;3.72;;;27.10;99.90;;;;;;5182730;28;20030;-71
2023/07/30 08:31:03;;;;;;;3.80;3.50;;;27.10;99.90;;;;;;5184921;28;20014;-71
2023/07/30 08:33:34;;;;;;;5.57;3.95;;;27.20;99.90;;;;;;5185089;28;20169;-72
2023/07/30 08:36:05;;;;;;;3.72;3.42;;;27.20;99.90;;;;;;5185499;28;20500;-71
2023/07/30 08:38:36;;;;;;;3.63;3.33;;;27.20;99.90;;;;;;5182891;28;20022;-71
2023/07/30 08:41:07;;;;;;;3.63;3.33;;;27.30;99.90;;;;;;5185083;28;20034;-72
2023/07/30 08:43:39;;;;;;;3.63;3.42;;;27.40;99.90;;;;;;5182242;28;20022;-73
2023/07/30 08:46:10;;;;;;;3.70;2.50;;;27.50;99.90;;;;;;5196757;28;20087;-71
2023/07/30 08:48:41;;;;;;;3.28;3.00;;;27.50;99.90;;;;;;5184459;28;20013;-72
2023/07/30 08:51:14;;;;;;;4.80;2.97;;;27.40;99.90;;;;;;5184233;28;20026;-72
2023/07/30 08:53:45;;;;;;;2.67;2.47;;;27.50;99.90;;;;;;5184440;28;20029;-72
2023/07/30 08:56:20;;;;;;;3.03;2.83;;;27.60;99.90;;;;;;5184509;28;20138;-72
2023/07/30 08:58:57;;;;;;;3.03;2.83;;;27.70;99.90;;;;;;5177488;28;20042;-73
2023/07/30 09:01:38;;;;;;;3.83;3.53;;;27.80;99.90;;;;;;5183590;28;20512;-72
2023/07/30 09:04:11;;;;;;;4.22;4.03;;;27.60;99.90;;;;;;5183913;28;20346;-73
2023/07/30 09:06:42;;;;;;;3.90;3.70;;;27.80;99.90;;;;;;5183419;28;20465;-72
2023/07/30 09:09:13;;;;;;;4.75;4.53;;;28.00;99.90;;;;;;5185463;28;20026;-72
2023/07/30 09:11:54;;;;;;;5.13;4.40;;;27.90;99.90;;;;;;5184629;28;20036;-72
2023/07/30 09:14:26;;;;;;;5.45;4.18;;;27.50;99.90;;;;;;5184910;28;20025;-71
2023/07/30 09:16:58;;;;;;;3.45;3.25;;;27.90;99.90;;;;;;5184810;28;20045;-71
2023/07/30 09:19:29;;;;;;;4.55;4.15;;;27.80;99.90;;;;;;5184671;28;20022;-72
2023/07/30 09:22:00;;;;;;;4.80;4.43;;;28.00;99.90;;;;;;5182217;28;20040;-71
2023/07/30 09:24:30;;;;;;;4.63;4.32;;;28.00;99.90;;;;;;5184421;28;20741;-71
2023/07/30 09:27:02;;;;;;;4.28;3.97;;;27.60;99.90;;;;;;5184415;28;20485;-71
2023/07/30 09:29:33;;;;;;;6.00;3.90;;;28.10;99.90;;;;;;5184826;28;20030;-72
2023/07/30 09:32:07;;;;;;;4.82;4.43;;;28.20;99.90;;;;;;5185044;28;20029;-71
2023/07/30 09:34:45;;;;;;;4.35;4.05;;;27.90;99.90;;;;;;5184205;28;20041;-71
2023/07/30 09:37:16;;;;;;;3.78;3.47;;;28.00;99.90;;;;;;5186688;28;20116;-71
2023/07/30 09:39:49;;;;;;;4.05;3.75;;;28.20;99.90;;;;;;5187517;28;20036;-72
2023/07/30 09:42:20;;;;;;;3.20;3.00;;;28.20;99.90;;;;;;5196058;28;20396;-71
2023/07/30 09:44:51;;;;;;;4.35;4.05;;;28.20;99.90;;;;;;5199059;28;20022;-72
2023/07/30 09:47:22;;;;;;;3.65;3.45;;;27.10;99.90;;;;;;5186972;28;20022;-72
2023/07/30 09:49:54;;;;;;;3.63;3.40;;;27.90;99.90;;;;;;5188044;28;20053;-72
2023/07/30 09:52:25;;;;;;;3.33;3.13;;;28.10;99.90;;;;;;5187278;28;20021;-72
2023/07/30 09:54:59;;;;;;;3.45;3.15;;;28.10;99.90;;;;;;5188948;28;20034;-71
2023/07/30 09:57:29;;;;;;;3.40;3.10;;;28.60;99.90;;;;;;5188633;28;20025;-72
2023/07/30 10:00:02;;;;;;;3.08;2.88;;;28.70;99.90;;;;;;5188741;28;20033;-72
2023/07/30 10:02:39;;;;;;;3.65;3.38;;;28.60;99.90;;;;;;5188711;28;20117;-72
2023/07/30 10:05:20;;;;;;;3.03;2.78;;;28.70;99.90;;;;;;5188555;28;20030;-72
2023/07/30 10:07:57;;;;;;;3.60;3.30;;;28.70;99.90;;;;;;5188710;28;20030;-71
2023/07/30 10:10:30;;;;;;;4.35;3.95;;;28.40;99.90;;;;;;5188556;28;20025;-72
2023/07/30 10:13:08;;;;;;;17.17;4.07;;;28.60;99.90;;;;;;5187291;28;20033;-72
2023/07/30 10:15:39;;;;;;;3.00;2.80;;;28.50;99.90;;;;;;5186629;28;20038;-72
2023/07/30 10:18:10;;;;;;;3.25;3.05;;;28.60;99.90;;;;;;5188115;28;20030;-71
2023/07/30 10:20:45;;;;;;;3.38;3.08;;;28.70;99.90;;;;;;5186145;28;20045;-72
2023/07/30 10:23:18;;;;;;;3.10;2.90;;;28.70;99.90;;;;;;5187837;28;20022;-72
2023/07/30 10:25:51;;;;;;;2.70;2.50;;;28.50;99.90;;;;;;5187399;28;20050;-72
2023/07/30 10:28:32;;;;;;;2.65;2.45;;;28.80;99.90;;;;;;5187831;28;20025;-72
2023/07/30 10:31:09;;;;;;;2.90;2.70;;;28.90;99.90;;;;;;5185575;28;20021;-72
2023/07/30 10:33:53;;;;;;;2.70;2.50;;;28.90;99.90;;;;;;5187485;28;20607;-72
2023/07/30 10:36:32;;;;;;;2.78;2.58;;;29.10;99.90;;;;;;5184582;28;20041;-72
2023/07/30 10:39:21;;;;;;;2.60;2.30;;;28.80;99.90;;;;;;5183004;28;20017;-72
2023/07/30 10:41:58;;;;;;;;;;;28.40;99.90;;;;;;5185827;28;20033;-72
2023/07/30 10:44:33;;;;;;;2.67;2.58;;;28.60;99.90;;;;;;5186397;28;19910;-72
2023/07/30 10:47:04;;;;;;;4.18;2.97;;;28.80;99.90;;;;;;5185124;28;20026;-72
2023/07/30 10:49:40;;;;;;;2.97;2.78;;;28.90;99.90;;;;;;5186295;28;20026;-72
2023/07/30 10:52:11;;;;;;;2.50;2.30;;;29.00;99.90;;;;;;5185156;28;20032;-72
2023/07/30 10:54:42;;;;;;;3.15;2.95;;;29.00;99.90;;;;;;5186566;28;20080;-72
2023/07/30 10:57:14;;;;;;;3.53;3.13;;;29.00;99.90;;;;;;5186743;28;20406;-72
2023/07/30 10:59:45;;;;;;;2.80;2.60;;;28.80;99.90;;;;;;5186732;28;20037;-72
2023/07/30 11:02:15;;;;;;;3.20;2.92;;;28.70;99.90;;;;;;5185450;28;20394;-72
2023/07/30 11:04:46;;;;;;;3.03;2.50;;;28.80;99.90;;;;;;5202334;28;20034;-71
2023/07/30 11:07:19;;;;;;;3.03;2.75;;;29.00;99.90;;;;;;5187389;28;20034;-71
2023/07/30 11:10:00;;;;;;;4.15;3.58;;;29.10;99.90;;;;;;5187480;28;20080;-72
2023/07/30 11:12:32;;;;;;;3.13;2.53;;;28.80;99.90;;;;;;5187160;28;20468;-72
2023/07/30 11:15:03;;;;;;;3.17;2.88;;;29.00;99.90;;;;;;5186024;28;20032;-72
2023/07/30 11:17:34;;;;;;;2.97;2.67;;;28.70;99.90;;;;;;5187377;28;20754;-72
2023/07/30 11:20:07;;;;;;;2.55;2.35;;;28.80;99.90;;;;;;5187193;28;20037;-72
2023/07/30 11:22:37;;;;;;;3.25;2.80;;;28.70;99.90;;;;;;5187222;28;20033;-71
2023/07/30 11:25:17;;;;;;;3.47;3.17;;;28.70;99.90;;;;;;5186568;28;20038;-72
2023/07/30 11:27:49;;;;;;;3.17;2.88;;;28.90;99.90;;;;;;5186222;28;20037;-71
2023/07/30 11:30:22;;;;;;;3.30;2.95;;;28.80;99.90;;;;;;5186025;28;20393;-72
2023/07/30 11:32:53;;;;;;;3.38;3.08;;;28.80;99.90;;;;;;5186042;28;20026;-72
2023/07/30 11:35:24;;;;;;;3.25;2.70;;;28.40;99.90;;;;;;5184852;28;20053;-72
2023/07/30 11:37:57;;;;;;;3.55;3.25;;;28.90;99.90;;;;;;5183376;28;20030;-72
2023/07/30 11:40:28;;;;;;;3.25;2.97;;;29.00;99.90;;;;;;5184635;28;20116;-72
2023/07/30 11:42:59;;;;;;;3.05;2.85;;;29.00;99.90;;;;;;5185900;28;20124;-72
2023/07/30 11:45:30;;;;;;;5.38;3.20;;;28.80;99.90;;;;;;5186000;28;20113;-72
2023/07/30 11:48:11;;;;;;;4.10;3.45;;;29.10;99.90;;;;;;5186768;28;20121;-72
2023/07/30 11:50:51;;;;;;;3.78;3.15;;;28.90;99.90;;;;;;5186651;28;20034;-72
2023/07/30 11:53:22;;;;;;;3.28;3.08;;;29.10;99.90;;;;;;5186345;28;20026;-72
2023/07/30 11:55:53;;;;;;;3.70;3.40;;;29.00;99.90;;;;;;5186366;28;20390;-72
2023/07/30 11:58:29;;;;;;;3.33;2.97;;;29.00;99.90;;;;;;5186111;28;20030;-72
2023/07/30 12:00:59;;;;;;;5.50;3.40;;;28.60;99.90;;;;;;5185493;28;20077;-72
2023/07/30 12:03:30;;;;;;;4.45;3.03;;;28.80;99.90;;;;;;5186533;28;20033;-72
2023/07/30 12:06:05;;;;;;;6.13;3.75;;;28.90;99.90;;;;;;5186361;28;20099;-72
2023/07/30 12:08:37;;;;;;;2.95;2.72;;;29.20;99.90;;;;;;5186263;28;20022;-71
2023/07/30 12:11:09;;;;;;;5.32;3.17;;;29.00;99.90;;;;;;5186125;28;20091;-72
2023/07/30 12:13:47;;;;;;;3.13;2.83;;;29.00;99.90;;;;;;5186136;28;20397;-72
2023/07/30 12:16:19;;;;;;;4.38;2.83;;;29.00;99.90;;;;;;5186173;28;20489;-72
2023/07/30 12:18:50;;;;;;;3.45;3.15;;;28.80;99.90;;;;;;5186145;28;20029;-72
2023/07/30 12:21:20;;;;;;;4.32;3.42;;;29.10;99.90;;;;;;5186034;28;20053;-72
2023/07/30 12:23:51;;;;;;;4.20;2.97;;;29.10;99.90;;;;;;5185314;28;20018;-72
2023/07/30 12:26:22;;;;;;;5.57;3.30;;;29.10;99.90;;;;;;5184965;28;20061;-72
2023/07/30 12:28:53;;;;;;;4.30;2.50;;;29.00;99.90;;;;;;5184555;28;20125;-71
2023/07/30 12:31:24;;;;;;;3.70;2.95;;;28.60;99.90;;;;;;5184308;28;20508;-72
2023/07/30 12:33:55;;;;;;;5.00;2.95;;;28.30;99.90;;;;;;5184747;28;20034;-72
2023/07/30 12:36:26;;;;;;;3.13;2.60;;;28.70;99.90;;;;;;5184622;28;20654;-72
2023/07/30 12:38:56;;;;;;;3.13;2.38;;;29.00;99.90;;;;;;5184505;28;20060;-72
2023/07/30 12:41:27;;;;;;;2.65;2.25;;;29.00;99.90;;;;;;5184910;28;20060;-72
2023/07/30 12:43:58;;;;;;;2.75;2.55;;;29.10;99.90;;;;;;5185660;28;20018;-72
2023/07/30 12:46:48;;;;;;;3.22;2.38;;;28.80;99.90;;;;;;5185634;28;20033;-72
2023/07/30 12:49:19;;;;;;;4.25;2.55;;;29.10;99.90;;;;;;5185318;28;20113;-72
2023/07/30 12:51:50;;;;;;;3.63;2.63;;;29.10;99.90;;;;;;5185365;28;20116;-72
2023/07/30 12:54:21;;;;;;;5.97;2.63;;;29.00;99.90;;;;;;5184499;28;20503;-72
2023/07/30 12:56:52;;;;;;;2.38;2.17;;;29.10;99.90;;;;;;5185550;28;20125;-72
2023/07/30 12:59:22;;;;;;;3.92;3.00;;;29.10;99.90;;;;;;5179654;28;20112;-71
2023/07/30 13:01:53;;;;;;;4.40;3.10;;;29.10;99.90;;;;;;5174476;28;20065;-72
2023/07/30 13:04:27;;;;;;;5.30;2.42;;;28.90;99.90;;;;;;5170142;28;20018;-71
2023/07/30 13:06:58;;;;;;;3.03;2.72;;;28.90;99.90;;;;;;5171521;28;20040;-71
2023/07/30 13:09:30;;;;;;;3.55;2.70;;;28.90;99.90;;;;;;5173394;28;20022;-71
2023/07/30 13:12:01;;;;;;;3.03;2.50;;;29.10;99.90;;;;;;5170412;28;20026;-71
2023/07/30 13:14:32;;;;;;;8.30;3.10;;;29.10;99.90;;;;;;5187620;28;20044;-72